Etusivu
METAR-TAF:

METAR-TAF

Lentoasemat :

Damaskos, Syyria

Damaskoksen kansainvälinen lentoasema

Leveyspiiri: 33-25N, Pituuspiiri: 036-31E, korkeus merenpinnasta: 608 m

Tämänhetkinen sää

Tämä raportti tehtiin 53 minuuttia sitten, kello 06.00 UTC
Tuuli 8 kn lännestä
Lämpötila 1°C
Kosteus 86%
Ilmanpaine 1022 hPa
Näkyvyys 10 km tai enemmän
ei pilviä alle 1500 m:ssä eikä cumulonimbus-pilviä

METAR: OSDI 200600Z 28008KT CAVOK 01/M01 Q1022

Aika: 08:53 (06:53 UTC)

Sääennuste

Ennuste voimassa 20. päivästä klo 06 UTC - 21. päivään klo 12 UTC
Tuuli 3 kn eri suunnista
Näkyvyys: 3000 m
utua
Tulossa
20. päivästä klo 08 UTC - 20. päivään klo 10 UTC
Tuuli 12 kn etelästä/lounaasta
Näkyvyys: 8000 m
Muutamia pilviä 3000 ft:n korkeudessa

TAF: OSDI 2006/2112 VRB03KT 3000 BR BECMG 2008/2010 20012KT 8000 FEW030

Säähavainnot ja -ennusteet yli 4000 lentoasemalta (METAR- ja TAF-raportit).

Käytössä olevat sääasemat on merkitty karttaan keltaisilla ja punaisilla pisteillä.

Aseta hiiri pisteen päälle nähdäksesi sääaseman nimen.

Klikkaa sitten nähdäksesi säähavainnot ja -ennusteet.

Kartan vaihtaminen: klikkaa mustalla rastilla varustettuja vihreitä pisteitä, niin voit zoomata sisään; viivalla varustettua vihreää pistettä, niin voit zoomata ulos tai vihreitä nuolia, niin pääset viereisille kartoille.


METAR-TAF: